Time;durP1;ratioP1;P1;durP2;ratioP2;P2;SDS_P1;SDS_P2;PMS_P1;PMS_P2;Temp;Humidity;BMP_temperature;BMP_pressure;BME280_temperature;BME280_humidity;BME280_pressure;Samples;Min_cycle;Max_cycle;Signal;HPM_P1;HPM_P2
2022/03/11 00:00:40;;;;;;;14.93;13.37;;;4.80;84.60;;;5.59;48.69;98237.41;5200594;28;20232;-54
2022/03/11 00:03:14;;;;;;;14.20;12.67;;;4.70;85.30;;;5.69;48.87;98239.03;5205297;28;20209;-58
2022/03/11 00:05:48;;;;;;;15.53;13.27;;;4.80;85.70;;;5.56;49.38;98237.16;5206317;28;20230;-54
2022/03/11 00:08:22;;;;;;;14.13;12.77;;;4.70;86.00;;;5.53;49.50;98234.38;5205585;28;20233;-56
2022/03/11 00:10:55;;;;;;;15.27;12.97;;;4.70;86.30;;;5.52;50.03;98238.56;5205955;28;20194;-58
2022/03/11 00:13:28;;;;;;;14.77;13.27;;;4.60;87.10;;;5.74;49.13;98237.78;5210212;28;20293;-57
2022/03/11 00:16:01;;;;;;;16.13;14.43;;;4.80;86.60;;;5.58;50.11;98238.16;5205944;28;20376;-59
2022/03/11 00:18:34;;;;;;;15.03;13.43;;;4.80;86.90;;;5.49;50.35;98245.00;5204460;28;20782;-60
2022/03/11 00:21:12;;;;;;;16.03;14.30;;;4.70;87.40;;;5.40;51.14;98240.06;5204081;28;20227;-60
2022/03/11 00:23:45;;;;;;;15.23;13.57;;;4.60;88.50;;;5.40;50.65;98240.94;5204331;28;20197;-60
2022/03/11 00:26:18;;;;;;;16.07;14.40;;;4.60;87.60;;;5.39;50.66;98236.66;5204364;28;20657;-55
2022/03/11 00:28:51;;;;;;;16.03;14.10;;;4.60;88.00;;;5.32;50.48;98242.00;5201935;28;20217;-57
2022/03/11 00:31:25;;;;;;;16.27;14.57;;;4.50;88.00;;;5.34;50.98;98230.31;5204045;28;20204;-57
2022/03/11 00:33:59;;;;;;;17.67;14.53;;;4.50;88.40;;;5.31;50.91;98226.63;5205205;28;20235;-54
2022/03/11 00:36:33;;;;;;;16.20;14.60;;;4.50;89.20;;;5.23;51.52;98231.06;5204858;28;20609;-55
2022/03/11 00:39:06;;;;;;;16.50;14.47;;;4.40;90.00;;;5.16;52.13;98234.75;5204263;28;20279;-58
2022/03/11 00:41:39;;;;;;;17.60;15.43;;;4.30;90.00;;;5.12;52.04;98226.75;5204955;28;20208;-56
2022/03/11 00:44:12;;;;;;;17.47;15.80;;;4.20;90.00;;;4.97;52.14;98229.75;5205342;28;20220;-58
2022/03/11 00:46:45;;;;;;;16.63;14.93;;;4.10;90.10;;;4.94;52.55;98233.69;5204306;28;20206;-59
2022/03/11 00:49:19;;;;;;;17.97;16.17;;;4.10;90.20;;;4.90;52.39;98234.19;5204057;28;20226;-56
2022/03/11 00:51:53;;;;;;;17.60;15.80;;;4.00;90.20;;;4.83;52.65;98231.88;5205590;28;20194;-58
2022/03/11 00:54:26;;;;;;;17.90;16.10;;;4.00;90.20;;;4.85;52.76;98235.44;5204692;28;20197;-60
2022/03/11 00:56:59;;;;;;;18.30;16.40;;;4.00;90.40;;;4.77;53.39;98236.44;5204391;28;20296;-60
2022/03/11 00:59:32;;;;;;;18.17;16.27;;;3.90;90.80;;;4.72;53.11;98233.50;5202157;28;20277;-60
2022/03/11 01:02:06;;;;;;;18.33;16.40;;;3.90;90.60;;;4.72;53.02;98228.44;5204046;28;20211;-57
2022/03/11 01:04:39;;;;;;;18.07;16.27;;;3.80;90.70;;;4.68;52.81;98228.94;5200128;28;20289;-59
2022/03/11 01:07:13;;;;;;;18.50;16.47;;;3.80;90.60;;;4.61;52.96;98229.19;5204007;28;20299;-61
2022/03/11 01:09:46;;;;;;;20.27;17.07;;;3.70;90.80;;;4.55;53.34;98234.63;5199648;28;20233;-60
2022/03/11 01:12:19;;;;;;;18.80;16.80;;;3.70;90.90;;;4.49;53.59;98229.00;5202321;28;20207;-55
2022/03/11 01:14:53;;;;;;;21.03;18.73;;;3.70;91.00;;;4.44;54.03;98230.28;5203991;28;20200;-60
2022/03/11 01:17:26;;;;;;;19.77;17.30;;;3.60;91.60;;;4.40;54.65;98229.09;5203691;28;20216;-60
2022/03/11 01:19:59;;;;;;;17.43;15.63;;;3.60;91.70;;;4.36;54.87;98227.06;5203360;28;20202;-60
2022/03/11 01:22:34;;;;;;;16.70;15.00;;;3.40;92.90;;;4.34;56.10;98232.75;5203253;28;20202;-60
2022/03/11 01:25:09;;;;;;;19.17;15.83;;;3.00;94.00;;;4.10;56.62;98232.38;5203831;28;20198;-59
2022/03/11 01:27:42;;;;;;;19.53;16.67;;;3.00;93.90;;;3.91;56.99;98234.91;5203492;28;20208;-56
2022/03/11 01:30:16;;;;;;;20.40;18.00;;;2.90;93.80;;;3.64;57.54;98232.50;5204295;28;20587;-57
2022/03/11 01:32:50;;;;;;;19.83;17.73;;;2.70;93.90;;;3.61;56.64;98223.88;5203966;28;20676;-55
2022/03/11 01:35:23;;;;;;;20.83;18.73;;;2.70;94.00;;;3.59;56.91;98225.38;5203914;28;20206;-60
2022/03/11 01:37:58;;;;;;;23.23;18.67;;;2.70;94.00;;;3.56;58.00;98220.03;5203721;28;22333;-60
2022/03/11 01:40:31;;;;;;;22.33;19.80;;;2.70;94.00;;;3.55;57.59;98228.38;5203874;28;20544;-58
2022/03/11 01:43:04;;;;;;;21.33;19.13;;;2.70;93.80;;;3.61;57.43;98218.81;5201701;28;20209;-57
2022/03/11 01:45:37;;;;;;;21.13;18.97;;;2.80;93.70;;;3.60;58.41;98216.13;5203237;28;20221;-55
2022/03/11 01:48:11;;;;;;;21.87;18.60;;;2.80;94.60;;;3.66;57.75;98225.91;5203169;28;20222;-60
2022/03/11 01:50:44;;;;;;;21.73;19.10;;;2.80;94.20;;;3.59;59.01;98206.78;5203960;28;20562;-60
2022/03/11 01:53:19;;;;;;;19.80;17.70;;;2.80;94.80;;;3.50;60.06;98214.44;5203042;28;20204;-58
2022/03/11 01:55:52;;;;;;;20.47;18.37;;;2.70;95.40;;;3.46;59.73;98212.38;5207889;28;20561;-60
2022/03/11 01:58:27;;;;;;;19.17;17.07;;;2.60;95.50;;;3.38;60.22;98215.88;5207596;28;20224;-60
2022/03/11 02:01:00;;;;;;;19.43;16.87;;;2.50;95.60;;;3.31;59.75;98205.94;5207562;28;20217;-57
2022/03/11 02:03:34;;;;;;;19.73;17.40;;;2.40;95.70;;;3.28;60.31;98215.78;5206743;28;20255;-56
2022/03/11 02:06:09;;;;;;;22.17;18.63;;;2.40;95.50;;;3.26;59.87;98213.13;5207666;28;20285;-60
2022/03/11 02:08:43;;;;;;;22.87;18.87;;;2.30;95.60;;;3.16;59.19;98211.38;5198745;28;20232;-57
2022/03/11 02:11:16;;;;;;;20.83;18.73;;;2.30;95.70;;;3.14;59.58;98217.03;5199588;28;20204;-60
2022/03/11 02:13:52;;;;;;;20.37;18.23;;;2.20;95.50;;;3.04;59.49;98217.84;5206437;28;20218;-59
2022/03/11 02:16:27;;;;;;;21.50;19.20;;;2.10;95.60;;;2.93;59.51;98216.88;5207356;28;20673;-56
2022/03/11 02:19:01;;;;;;;22.40;20.00;;;2.10;95.50;;;2.96;60.41;98221.31;5207179;28;20248;-60
2022/03/11 02:21:43;;;;;;;21.00;18.80;;;2.30;95.80;;;3.00;60.32;98223.34;5207113;28;20224;-60
2022/03/11 02:24:18;;;;;;;21.50;19.13;;;2.30;95.30;;;2.91;59.75;98220.88;5203016;28;20197;-60
2022/03/11 02:26:51;;;;;;;21.37;18.63;;;2.10;96.00;;;2.89;60.21;98224.00;5204736;28;20190;-60
2022/03/11 02:29:24;;;;;;;24.43;20.80;;;2.00;95.80;;;2.87;59.62;98225.53;5207178;28;20218;-60
2022/03/11 02:31:57;;;;;;;22.47;19.53;;;2.10;95.50;;;2.79;59.59;98221.38;5207047;28;20712;-60
2022/03/11 02:34:31;;;;;;;23.40;20.50;;;2.00;95.40;;;2.73;59.83;98210.72;5206431;28;20200;-59
2022/03/11 02:37:05;;;;;;;22.40;19.27;;;1.90;95.40;;;2.65;59.46;98222.63;5206680;28;20201;-60
2022/03/11 02:39:39;;;;;;;22.50;19.97;;;1.90;95.60;;;2.61;59.49;98213.00;5206912;28;20688;-60
2022/03/11 02:42:12;;;;;;;23.50;19.50;;;1.80;95.50;;;2.58;60.10;98211.09;5206395;28;20227;-60
2022/03/11 02:44:45;;;;;;;22.07;19.67;;;1.80;95.70;;;2.61;60.09;98201.28;5205700;28;20693;-59
2022/03/11 02:47:19;;;;;;;22.63;19.87;;;1.70;95.80;;;2.56;59.76;98204.13;5206155;28;20200;-60
2022/03/11 02:49:52;;;;;;;25.10;21.03;;;1.70;95.80;;;2.45;59.71;98203.13;5207234;28;20225;-60
2022/03/11 02:52:25;;;;;;;23.10;20.20;;;1.70;95.40;;;2.47;59.66;98209.19;5206689;28;20697;-57
2022/03/11 02:55:00;;;;;;;23.03;19.67;;;1.60;95.30;;;2.45;59.15;98209.03;5206532;28;20346;-55
2022/03/11 02:57:33;;;;;;;23.43;20.43;;;1.60;95.30;;;2.44;59.94;98203.88;5206240;28;20200;-60
2022/03/11 03:00:08;;;;;;;24.57;19.90;;;1.60;95.10;;;2.55;58.54;98205.75;5206615;28;20205;-55
2022/03/11 03:02:41;;;;;;;22.33;18.70;;;1.70;94.60;;;2.55;59.65;98210.81;5205102;28;20228;-59
2022/03/11 03:05:15;;;;;;;23.33;19.40;;;1.70;96.10;;;2.51;60.21;98210.38;5206879;28;20197;-60
2022/03/11 03:07:48;;;;;;;21.20;18.43;;;1.60;96.30;;;2.34;61.10;98204.63;5209860;28;20237;-60
2022/03/11 03:10:23;;;;;;;23.07;19.10;;;1.40;96.60;;;2.21;61.27;98210.16;5205783;28;20202;-60
2022/03/11 03:12:56;;;;;;;23.60;20.53;;;1.30;96.60;;;2.18;61.97;98204.81;5204145;28;20729;-60
2022/03/11 03:15:29;;;;;;;22.93;20.33;;;1.40;97.00;;;2.17;62.14;98205.53;5204820;28;20200;-59
2022/03/11 03:18:02;;;;;;;21.87;19.37;;;1.30;97.20;;;2.05;61.78;98206.91;5205851;28;20252;-60
2022/03/11 03:20:35;;;;;;;24.40;20.70;;;1.20;96.90;;;1.98;61.77;98202.06;5205666;28;20215;-60
2022/03/11 03:23:09;;;;;;;25.80;20.67;;;1.10;96.80;;;1.87;61.68;98208.56;5205880;28;20196;-60
2022/03/11 03:25:43;;;;;;;24.53;20.80;;;1.00;97.20;;;1.78;62.20;98208.59;5205793;28;20204;-60
2022/03/11 03:28:16;;;;;;;23.70;19.33;;;1.00;96.90;;;1.77;61.29;98206.81;5205403;28;20226;-60
2022/03/11 03:30:49;;;;;;;22.87;19.80;;;1.00;96.60;;;1.82;61.29;98213.91;5206037;28;20682;-60
2022/03/11 03:33:22;;;;;;;21.20;18.90;;;1.00;96.50;;;1.74;62.13;98206.50;5202797;28;20306;-60
2022/03/11 03:35:55;;;;;;;23.37;20.43;;;1.00;96.90;;;1.69;62.33;98207.72;5206311;28;20674;-60
2022/03/11 03:38:29;;;;;;;23.57;19.80;;;0.90;97.20;;;1.72;62.50;98210.53;5205605;28;20224;-60
2022/03/11 03:41:03;;;;;;;21.83;19.43;;;0.90;97.70;;;1.76;62.57;98207.53;5203877;28;20227;-59
2022/03/11 03:43:36;;;;;;;21.63;18.00;;;0.90;97.40;;;1.72;62.85;98208.00;5205548;28;20200;-59
2022/03/11 03:46:09;;;;;;;21.43;18.77;;;0.90;97.90;;;1.67;62.85;98206.66;5203753;28;20686;-60
2022/03/11 03:48:43;;;;;;;22.03;18.53;;;0.80;98.00;;;1.60;63.58;98218.50;5205394;28;20694;-60
2022/03/11 03:51:16;;;;;;;21.03;18.13;;;0.70;97.90;;;1.61;63.56;98216.16;5205076;28;20552;-60
2022/03/11 03:53:49;;;;;;;21.73;19.43;;;0.70;98.20;;;1.58;64.21;98211.69;5205210;28;20198;-60
2022/03/11 03:56:23;;;;;;;25.30;20.90;;;0.70;98.60;;;1.36;64.04;98200.28;5204859;28;20194;-60
2022/03/11 03:58:56;;;;;;;24.03;20.17;;;0.50;98.40;;;1.35;64.43;98208.59;5205078;28;20221;-59
2022/03/11 04:01:33;;;;;;;22.40;19.93;;;0.40;98.70;;;1.18;64.47;98211.06;5204211;28;20666;-60
2022/03/11 04:04:08;;;;;;;23.67;18.97;;;0.30;98.80;;;1.11;65.08;98207.03;5205127;28;20715;-60
2022/03/11 04:06:42;;;;;;;22.80;19.97;;;0.20;99.00;;;1.05;64.91;98206.44;5205302;28;20205;-59
2022/03/11 04:09:15;;;;;;;21.80;18.83;;;0.10;99.20;;;1.08;65.27;98207.63;5202693;28;20222;-59
2022/03/11 04:11:50;;;;;;;22.80;18.83;;;0.20;99.40;;;1.06;64.91;98203.19;5201809;28;20194;-60
2022/03/11 04:14:23;;;;;;;20.83;18.17;;;0.20;99.10;;;1.04;65.06;98205.56;5199215;28;20661;-60
2022/03/11 04:16:56;;;;;;;21.03;18.07;;;0.20;98.90;;;1.09;64.34;98206.03;5204474;28;20581;-58
2022/03/11 04:19:29;;;;;;;21.87;18.10;;;0.20;98.70;;;1.06;64.21;98199.06;5205180;28;20218;-60
2022/03/11 04:22:03;;;;;;;19.43;16.03;;;0.20;98.40;;;0.92;63.40;98199.31;5204277;28;20576;-59
2022/03/11 04:24:36;;;;;;;19.53;17.23;;;0.10;97.70;;;0.97;63.62;98197.25;5204850;28;20198;-60
2022/03/11 04:27:10;;;;;;;19.83;17.00;;;0.20;98.10;;;0.97;63.97;98207.31;5204821;28;20202;-59
2022/03/11 04:29:43;;;;;;;19.17;17.13;;;0.20;98.40;;;0.96;64.29;98206.44;5203932;28;20217;-59
2022/03/11 04:32:17;;;;;;;19.70;17.27;;;0.20;98.00;;;0.99;63.70;98208.34;5200044;28;20198;-60
2022/03/11 04:34:50;;;;;;;21.57;18.27;;;0.20;98.50;;;0.89;63.81;98204.06;5204638;28;20571;-59
2022/03/11 04:37:23;;;;;;;20.50;16.93;;;0.10;98.10;;;0.92;63.66;98203.44;5204801;28;20293;-60
2022/03/11 04:39:57;;;;;;;21.43;17.90;;;0.10;98.30;;;0.86;63.25;98197.09;5204388;28;20222;-60
2022/03/11 04:42:31;;;;;;;18.67;16.73;;;0.00;98.10;;;0.88;63.55;98208.16;5204237;28;20240;-59
2022/03/11 04:45:06;;;;;;;20.50;17.17;;;0.10;98.20;;;0.87;63.05;98200.50;5204380;28;20208;-60
2022/03/11 04:47:39;;;;;;;18.63;16.40;;;0.00;98.10;;;0.73;63.96;98191.56;5202852;28;20520;-60
2022/03/11 04:50:12;;;;;;;18.90;16.57;;;-0.10;98.30;;;0.65;63.17;98198.31;5204534;28;20216;-60
2022/03/11 04:52:46;;;;;;;20.20;17.03;;;-0.20;97.90;;;0.68;63.23;98202.78;5204452;28;20212;-60
2022/03/11 04:55:19;;;;;;;20.37;15.90;;;-0.20;98.30;;;0.70;64.21;98211.38;5204503;28;20205;-60
2022/03/11 04:57:53;;;;;;;18.87;16.87;;;-0.20;98.10;;;0.71;63.56;98204.72;5203057;28;20222;-60
2022/03/11 05:00:26;;;;;;;19.17;16.10;;;-0.20;98.00;;;0.61;63.52;98207.94;5203164;28;20673;-59
2022/03/11 05:03:01;;;;;;;17.93;15.67;;;-0.30;98.10;;;0.55;64.57;98204.81;5202714;28;20221;-60
2022/03/11 05:05:34;;;;;;;18.10;15.23;;;-0.30;98.30;;;0.45;63.64;98208.91;5205286;28;20197;-59
2022/03/11 05:08:07;;;;;;;17.37;15.30;;;-0.40;98.20;;;0.43;64.13;98205.34;5203724;28;20226;-60
2022/03/11 05:10:40;;;;;;;20.73;16.43;;;-0.40;98.00;;;0.40;64.32;98210.09;5200720;28;20202;-60
2022/03/11 05:13:16;;;;;;;16.87;14.70;;;-0.50;98.50;;;0.37;64.44;98217.31;5197426;28;20209;-60
2022/03/11 05:15:49;;;;;;;15.77;14.17;;;-0.40;98.70;;;0.36;63.35;98213.00;5204009;28;20213;-59
2022/03/11 05:18:22;;;;;;;17.47;15.43;;;-0.50;97.80;;;0.24;63.37;98211.75;5205126;28;20228;-59
2022/03/11 05:20:55;;;;;;;18.03;14.83;;;-0.50;98.30;;;0.30;63.50;98212.38;5202425;28;20206;-60
2022/03/11 05:23:28;;;;;;;16.90;13.20;;;-0.50;97.50;;;0.20;61.88;98209.66;5201413;28;20222;-59
2022/03/11 05:26:02;;;;;;;16.27;14.57;;;-0.70;96.90;;;0.01;63.29;98201.00;5202777;28;20197;-59
2022/03/11 05:28:37;;;;;;;15.90;14.20;;;-0.70;97.70;;;-0.07;62.71;98202.69;5203906;28;20222;-60
2022/03/11 05:31:10;;;;;;;16.00;12.90;;;-0.80;97.70;;;-0.15;62.82;98209.44;5204020;28;20204;-60
2022/03/11 05:33:43;;;;;;;14.77;12.20;;;-0.80;97.00;;;-0.10;63.23;98205.78;5203321;28;20194;-58
2022/03/11 05:36:16;;;;;;;15.13;13.47;;;-0.80;97.20;;;-0.04;62.27;98208.94;5204149;28;20202;-60
2022/03/11 05:38:49;;;;;;;12.77;11.20;;;-0.80;97.40;;;-0.09;62.74;98219.22;5202872;28;20225;-59
2022/03/11 05:41:22;;;;;;;16.80;12.80;;;-0.90;96.70;;;-0.24;60.93;98214.41;5203368;28;20208;-60
2022/03/11 05:43:57;;;;;;;15.10;12.57;;;-0.90;96.10;;;-0.02;62.00;98227.56;5203571;28;20214;-60
2022/03/11 05:46:30;;;;;;;16.23;14.53;;;-0.80;96.70;;;-0.07;62.88;98223.69;5203075;28;20215;-60
2022/03/11 05:49:03;;;;;;;18.10;16.20;;;-0.90;97.40;;;-0.19;63.45;98222.41;5201573;28;20233;-60
2022/03/11 05:51:37;;;;;;;18.93;14.67;;;-0.90;97.50;;;-0.15;63.76;98229.53;5203809;28;20198;-60
2022/03/11 05:54:10;;;;;;;16.10;14.13;;;-0.90;97.90;;;-0.13;64.32;98233.09;5203240;28;20196;-60
2022/03/11 05:56:43;;;;;;;15.60;13.90;;;-0.80;98.20;;;-0.09;63.77;98235.19;5202696;28;20198;-59
2022/03/11 05:59:18;;;;;;;14.30;12.83;;;-0.80;97.70;;;-0.02;63.00;98227.56;5194696;28;20232;-60
2022/03/11 06:01:51;;;;;;;15.63;13.60;;;-0.80;97.00;;;-0.08;62.71;98237.00;5203114;28;20560;-60
2022/03/11 06:04:25;;;;;;;15.67;13.07;;;-0.70;97.00;;;-0.06;62.30;98230.50;5201540;28;20205;-60
2022/03/11 06:06:58;;;;;;;13.00;11.63;;;-0.80;96.30;;;-0.13;61.04;98225.56;5203053;28;20202;-59
2022/03/11 06:09:31;;;;;;;12.70;10.90;;;-0.80;95.50;;;-0.05;60.12;98218.84;5199208;28;20313;-60
2022/03/11 06:12:05;;;;;;;12.40;11.10;;;-0.80;95.30;;;0.03;59.74;98219.59;5205220;28;20233;-60
2022/03/11 06:14:40;;;;;;;13.30;11.90;;;-0.70;95.80;;;0.06;59.67;98223.34;5199688;28;20208;-60
2022/03/11 06:17:13;;;;;;;12.40;10.97;;;-0.60;95.40;;;-0.06;60.39;98229.59;5196502;28;20205;-59
2022/03/11 06:19:46;;;;;;;15.17;12.60;;;-0.70;95.20;;;0.11;61.06;98222.16;5202809;28;20264;-55
2022/03/11 06:22:19;;;;;;;15.10;13.37;;;-0.60;96.70;;;0.38;61.87;98226.63;5206932;28;20542;-57
2022/03/11 06:24:52;;;;;;;14.57;12.87;;;-0.50;97.30;;;0.63;63.26;98235.03;5205471;28;20285;-54
2022/03/11 06:27:25;;;;;;;13.37;11.83;;;-0.30;98.00;;;0.80;61.72;98234.22;5204883;28;20663;-57
2022/03/11 06:29:59;;;;;;;14.00;12.37;;;-0.10;96.90;;;0.99;60.75;98225.97;5204307;28;20685;-56
2022/03/11 06:32:33;;;;;;;14.20;11.83;;;0.00;97.00;;;1.42;60.76;98220.13;5202394;28;20194;-57
2022/03/11 06:35:07;;;;;;;12.00;10.80;;;0.40;97.10;;;1.86;58.78;98226.06;5203440;28;20642;-59
2022/03/11 06:37:40;;;;;;;11.87;10.70;;;0.90;95.20;;;2.19;56.21;98218.31;5203635;28;20564;-60
2022/03/11 06:40:15;;;;;;;11.00;9.97;;;1.10;94.00;;;2.61;54.74;98220.59;5206372;28;20194;-58
2022/03/11 06:42:50;;;;;;;11.53;10.33;;;1.50;92.80;;;2.85;51.16;98217.78;5207087;28;20230;-57
2022/03/11 06:45:25;;;;;;;13.17;11.87;;;1.80;90.40;;;3.32;51.86;98215.28;5201344;28;20207;-59
2022/03/11 06:47:58;;;;;;;11.80;10.60;;;2.00;92.20;;;3.66;52.20;98220.84;5207968;28;20208;-58
2022/03/11 06:50:31;;;;;;;13.40;12.10;;;2.10;91.90;;;3.91;51.01;98219.75;5207695;28;20200;-59
2022/03/11 06:53:04;;;;;;;16.17;13.30;;;2.30;91.70;;;4.28;50.35;98217.91;5208130;28;20216;-58
2022/03/11 06:55:38;;;;;;;14.53;13.13;;;2.40;91.50;;;4.53;48.46;98215.88;5208064;28;20216;-56
2022/03/11 06:58:11;;;;;;;13.27;11.97;;;2.60;91.00;;;4.94;48.09;98216.84;5207190;28;20224;-58
2022/03/11 07:00:45;;;;;;;12.53;10.70;;;2.90;90.90;;;4.97;47.86;98212.03;5207327;28;20203;-55
2022/03/11 07:03:18;;;;;;;13.07;11.63;;;3.10;90.00;;;4.61;46.86;98229.19;5206814;28;20234;-57
2022/03/11 07:05:52;;;;;;;13.13;11.53;;;3.10;87.80;;;4.92;48.96;98217.47;5207022;28;20206;-58
2022/03/11 07:08:25;;;;;;;10.93;9.93;;;3.50;90.50;;;5.15;49.13;98216.88;5207153;28;20226;-58
2022/03/11 07:10:59;;;;;;;11.70;10.60;;;3.70;90.30;;;5.20;48.00;98216.50;5207107;28;20289;-58
2022/03/11 07:13:32;;;;;;;11.83;10.57;;;3.80;88.80;;;5.53;47.72;98221.72;5207468;28;20289;-59
2022/03/11 07:16:09;;;;;;;12.87;10.50;;;4.10;88.30;;;5.79;46.54;98222.19;5206523;28;20208;-56
2022/03/11 07:18:42;;;;;;;14.13;12.60;;;4.40;86.70;;;5.84;46.89;98225.97;5206238;28;20744;-59
2022/03/11 07:21:15;;;;;;;12.83;11.63;;;4.70;85.90;;;5.76;46.13;98223.59;5206828;28;20208;-59
2022/03/11 07:23:54;;;;;;;14.90;13.23;;;4.50;85.10;;;5.81;45.33;98220.66;5206853;28;20219;-56
2022/03/11 07:26:27;;;;;;;13.60;12.07;;;4.60;84.50;;;5.88;45.89;98217.84;5205450;28;20296;-58
2022/03/11 07:29:01;;;;;;;13.33;11.83;;;4.60;85.00;;;6.09;44.67;98212.75;5206914;28;20600;-59
2022/03/11 07:31:35;;;;;;;13.70;11.87;;;4.90;83.40;;;6.40;43.86;98215.19;5205846;28;20574;-59
2022/03/11 07:34:08;;;;;;;14.03;12.63;;;5.20;81.90;;;6.67;44.30;98222.44;5205751;28;20194;-59
2022/03/11 07:36:42;;;;;;;13.57;11.93;;;5.60;82.70;;;6.89;42.98;98217.34;5206061;28;20602;-59
2022/03/11 07:39:15;;;;;;;12.80;11.50;;;5.80;80.60;;;6.96;42.21;98218.72;5203570;28;20597;-60
2022/03/11 07:41:49;;;;;;;12.30;11.07;;;5.80;79.70;;;7.12;41.60;98219.09;5199143;28;20202;-59
2022/03/11 07:44:22;;;;;;;12.27;11.00;;;5.90;78.00;;;7.16;40.92;98210.94;5205415;28;20701;-58
2022/03/11 07:47:04;;;;;;;12.20;10.87;;;6.00;77.60;;;7.44;40.27;98218.13;5205878;28;20198;-58
2022/03/11 07:49:37;;;;;;;12.10;10.67;;;6.20;76.30;;;7.50;40.43;98213.47;5205753;28;20219;-58
2022/03/11 07:52:15;;;;;;;14.33;11.47;;;6.40;76.00;;;7.49;39.39;98205.72;5203215;28;20197;-59
2022/03/11 07:54:48;;;;;;;12.20;10.87;;;6.40;73.90;;;7.42;38.02;98210.34;5203699;28;20194;-57
2022/03/11 07:57:21;;;;;;;11.80;10.60;;;6.40;72.90;;;7.32;36.53;98212.09;5206728;28;20206;-59
2022/03/11 07:59:54;;;;;;;11.87;10.77;;;6.40;70.00;;;7.42;37.67;98207.81;5205489;28;20230;-59
2022/03/11 08:02:29;;;;;;;13.30;11.33;;;6.20;71.80;;;7.52;38.24;98201.75;5205702;28;20205;-59
2022/03/11 08:05:04;;;;;;;11.90;10.30;;;6.50;72.50;;;7.61;36.64;98212.63;5205695;28;20221;-59
2022/03/11 08:07:37;;;;;;;11.33;10.23;;;6.60;70.30;;;7.56;36.22;98213.94;5204379;28;20298;-60
2022/03/11 08:10:11;;;;;;;11.40;10.20;;;6.80;68.30;;;7.44;35.44;98223.19;5203757;28;20200;-59
2022/03/11 08:12:44;;;;;;;10.83;9.73;;;6.70;68.00;;;7.10;37.52;98209.59;5205504;28;20285;-60
2022/03/11 08:15:17;;;;;;;11.47;10.33;;;6.20;69.60;;;7.40;36.27;98208.47;5206089;28;20666;-58
2022/03/11 08:17:52;;;;;;;11.03;9.93;;;6.40;69.40;;;7.41;36.59;98213.69;5205777;28;20305;-57
2022/03/11 08:20:26;;;;;;;11.80;9.63;;;6.40;68.60;;;7.32;36.32;98209.53;5204990;28;20235;-57
2022/03/11 08:22:59;;;;;;;11.00;9.90;;;6.60;68.70;;;7.27;36.41;98213.38;5203633;28;20201;-60
2022/03/11 08:25:32;;;;;;;11.13;10.03;;;6.50;68.20;;;7.38;35.86;98212.53;5203403;28;20868;-58
2022/03/11 08:28:10;;;;;;;12.50;10.93;;;6.50;68.30;;;7.37;36.35;98205.69;5205098;28;20218;-60
2022/03/11 08:30:43;;;;;;;11.07;9.97;;;6.60;68.00;;;7.95;35.63;98206.56;5200545;28;20201;-59
2022/03/11 08:33:20;;;;;;;11.47;10.13;;;7.50;66.90;;;7.87;35.49;98213.66;5204421;28;20205;-59
2022/03/11 08:36:13;;;;;;;10.90;9.80;;;7.50;66.70;;;7.85;35.78;98205.00;5201787;28;20202;-59
2022/03/11 08:38:47;;;;;;;11.27;10.17;;;7.30;67.00;;;7.82;36.71;98203.13;5203653;28;20698;-60
2022/03/11 08:41:22;;;;;;;11.30;10.10;;;7.30;67.80;;;7.95;35.26;98209.09;5205174;28;20660;-54
2022/03/11 08:43:55;;;;;;;11.57;10.43;;;7.40;66.00;;;7.93;35.20;98201.38;5200168;28;20222;-55
2022/03/11 08:46:30;;;;;;;11.43;10.27;;;7.20;66.80;;;8.01;35.21;98205.38;5205958;28;20560;-55
2022/03/11 08:49:06;;;;;;;11.37;10.27;;;7.40;66.30;;;8.22;35.07;98202.59;5206205;28;20229;-58
2022/03/11 08:51:41;;;;;;;12.10;10.97;;;7.60;66.50;;;8.37;34.85;98190.94;5206095;28;20193;-55
2022/03/11 08:54:14;;;;;;;11.40;10.30;;;7.80;65.60;;;8.57;34.50;98197.47;5198701;28;20200;-55
2022/03/11 08:56:47;;;;;;;13.27;10.57;;;7.90;65.10;;;8.62;34.42;98192.69;5206633;28;20182;-58
2022/03/11 08:59:21;;;;;;;11.63;10.43;;;8.00;64.70;;;8.60;34.83;98194.25;5210674;28;20213;-60
2022/03/11 09:01:54;;;;;;;12.17;10.63;;;8.00;65.50;;;8.79;34.70;98187.09;5205205;28;20204;-59
2022/03/11 09:04:30;;;;;;;11.23;10.17;;;8.20;65.30;;;8.74;33.58;98178.25;5205646;28;20217;-58
2022/03/11 09:07:04;;;;;;;11.67;10.50;;;7.90;64.60;;;8.90;34.18;98181.09;5205333;28;20312;-57
2022/03/11 09:09:38;;;;;;;11.70;10.60;;;8.10;65.20;;;9.17;34.29;98186.28;5205810;28;20229;-58
2022/03/11 09:12:11;;;;;;;11.77;10.50;;;8.50;64.80;;;9.26;33.69;98181.81;5204993;28;20194;-58
2022/03/11 09:14:44;;;;;;;12.80;10.87;;;8.60;64.00;;;9.31;34.04;98179.56;5205121;28;20666;-57
2022/03/11 09:17:17;;;;;;;12.50;11.20;;;8.70;64.50;;;9.34;33.93;98185.75;5205066;28;20204;-58
2022/03/11 09:20:02;;;;;;;11.87;10.70;;;8.80;63.50;;;9.41;33.81;98185.41;5205112;28;20358;-58
2022/03/11 09:22:55;;;;;;;12.47;11.17;;;8.70;64.40;;;9.36;33.83;98176.53;5205507;28;20213;-59
2022/03/11 09:25:28;;;;;;;11.97;10.50;;;8.70;63.70;;;9.09;33.84;98169.59;5205652;28;20218;-58
2022/03/11 09:28:06;;;;;;;10.90;9.80;;;8.40;64.10;;;9.14;34.06;98164.00;5205122;28;20224;-58
2022/03/11 09:30:39;;;;;;;12.07;10.87;;;8.20;65.20;;;9.00;33.91;98165.63;5205314;28;20190;-58
2022/03/11 09:33:12;;;;;;;11.33;10.20;;;8.20;64.70;;;9.38;33.56;98161.31;5205371;28;20202;-58
2022/03/11 09:35:46;;;;;;;11.10;10.00;;;8.70;64.00;;;9.21;34.02;98155.09;5201403;28;20212;-57
2022/03/11 09:38:20;;;;;;;12.17;10.07;;;8.60;64.70;;;9.60;33.14;98156.84;5204861;28;20255;-58
2022/03/11 09:40:53;;;;;;;11.47;10.37;;;9.20;62.90;;;9.46;32.88;98158.50;5205479;28;20189;-57
2022/03/11 09:43:27;;;;;;;12.73;10.53;;;9.10;62.20;;;9.71;33.46;98157.56;5205310;28;20202;-59
2022/03/11 09:46:01;;;;;;;11.73;10.50;;;9.20;62.40;;;9.12;33.99;98147.72;5205563;28;20213;-59
2022/03/11 09:48:35;;;;;;;11.43;10.33;;;8.70;63.40;;;9.05;33.92;98148.09;5205203;28;20222;-59
2022/03/11 09:51:11;;;;;;;12.13;11.00;;;8.70;63.20;;;9.25;33.98;98144.34;5204373;28;20292;-59
2022/03/11 09:53:47;;;;;;;11.63;10.43;;;8.70;63.80;;;9.35;34.01;98143.25;5201380;28;20201;-59
2022/03/11 09:56:21;;;;;;;11.27;10.13;;;8.80;64.00;;;9.48;34.16;98128.88;5205286;28;20656;-58
2022/03/11 09:58:55;;;;;;;11.37;10.30;;;8.90;64.70;;;9.72;33.68;98123.59;5204054;28;20242;-59
2022/03/11 10:01:28;;;;;;;11.50;10.40;;;9.20;64.10;;;9.68;33.54;98134.41;5204678;28;20216;-58
2022/03/11 10:04:03;;;;;;;12.73;10.60;;;9.40;63.60;;;9.77;34.73;98134.97;5204962;28;20205;-58
2022/03/11 10:06:43;;;;;;;11.73;10.63;;;9.40;64.10;;;9.85;34.32;98140.59;5204523;28;20221;-57
2022/03/11 10:09:33;;;;;;;12.50;11.23;;;9.50;63.80;;;9.83;34.10;98135.38;5200212;28;20312;-58
2022/03/11 10:12:08;;;;;;;11.53;10.20;;;9.40;63.30;;;10.20;33.15;98142.81;5204672;28;20214;-58
2022/03/11 10:14:41;;;;;;;11.20;10.10;;;9.70;63.40;;;10.18;33.90;98129.06;5208855;28;20198;-58
2022/03/11 10:17:20;;;;;;;12.00;10.73;;;9.70;63.10;;;10.34;33.67;98119.06;5208350;28;20204;-56
2022/03/11 10:20:02;;;;;;;11.73;10.53;;;9.80;63.20;;;10.06;33.23;98116.41;5205059;28;20653;-57
2022/03/11 10:22:38;;;;;;;11.73;10.50;;;9.50;62.50;;;10.10;33.71;98112.38;5212045;28;20213;-59
2022/03/11 10:25:17;;;;;;;11.10;10.00;;;9.50;64.10;;;10.30;33.76;98105.97;5212432;28;20205;-58
2022/03/11 10:27:58;;;;;;;12.70;11.10;;;9.60;63.80;;;10.40;33.13;98116.00;5194152;28;20232;-59
2022/03/11 10:30:33;;;;;;;12.60;10.80;;;9.90;62.50;;;10.22;32.90;98110.59;5214285;28;20666;-58
2022/03/11 10:33:10;;;;;;;11.43;10.33;;;9.70;63.30;;;10.24;33.34;98114.13;5211595;28;20207;-58
2022/03/11 10:35:47;;;;;;;11.53;10.43;;;9.50;64.10;;;10.41;32.86;98104.09;5212718;28;20203;-59
2022/03/11 10:38:27;;;;;;;11.67;10.57;;;9.90;63.30;;;10.64;33.33;98110.59;5208795;28;20308;-55
2022/03/11 10:41:00;;;;;;;12.23;11.03;;;10.00;63.30;;;10.54;32.86;98102.41;5206508;28;20680;-58
2022/03/11 10:43:34;;;;;;;13.80;11.00;;;10.10;63.40;;;10.52;33.42;98097.97;5208388;28;20200;-60
2022/03/11 10:46:09;;;;;;;11.77;10.67;;;10.00;63.60;;;10.69;33.86;98097.31;5208287;28;20224;-60